createdAt,value
2018-04-14T00:02:08.165Z,38.83
2018-04-14T00:04:35.668Z,37.57
2018-04-14T00:07:03.167Z,35.23
2018-04-14T00:09:30.676Z,38.43
2018-04-14T00:11:58.263Z,34.00
2018-04-14T00:14:26.516Z,37.27
2018-04-14T00:16:54.043Z,38.20
2018-04-14T00:19:21.518Z,35.53
2018-04-14T00:21:49.016Z,38.80
2018-04-14T00:24:16.488Z,40.03
2018-04-14T00:26:43.990Z,38.90
2018-04-14T00:29:11.518Z,39.43
2018-04-14T00:31:39.078Z,35.73
2018-04-14T00:34:06.588Z,37.93
2018-04-14T00:36:34.194Z,37.93
2018-04-14T00:39:01.697Z,39.97
2018-04-14T00:41:29.209Z,39.90
2018-04-14T00:43:56.737Z,35.47
2018-04-14T00:46:25.014Z,37.80
2018-04-14T00:48:53.316Z,35.80
2018-04-14T00:51:20.799Z,36.47
2018-04-14T00:53:49.196Z,36.97
2018-04-14T00:56:16.679Z,33.53
2018-04-14T00:58:44.943Z,37.77
2018-04-14T01:01:12.454Z,38.40
2018-04-14T01:03:39.951Z,36.37
2018-04-14T01:06:07.436Z,35.63
2018-04-14T01:08:35.708Z,38.37
2018-04-14T01:11:03.944Z,37.10
2018-04-14T01:13:31.435Z,38.20
2018-04-14T01:15:58.920Z,38.87
2018-04-14T01:18:26.414Z,37.40
2018-04-14T01:20:53.907Z,38.70
2018-04-14T01:23:21.417Z,38.97
2018-04-14T01:25:48.893Z,40.70
2018-04-14T01:28:16.390Z,41.63
2018-04-14T01:30:44.636Z,39.67
2018-04-14T01:33:12.237Z,40.50
2018-04-14T01:35:39.721Z,39.13
2018-04-14T01:38:07.217Z,38.43
2018-04-14T01:40:34.697Z,38.83
2018-04-14T01:43:02.976Z,37.53
2018-04-14T01:45:31.216Z,35.80
2018-04-14T01:47:58.820Z,35.57
2018-04-14T01:50:26.351Z,40.17
2018-04-14T01:52:53.853Z,78.30
2018-04-14T01:55:21.323Z,68.90
2018-04-14T02:00:22.693Z,81.13
2018-04-14T02:02:50.343Z,156.50
2018-04-14T02:05:17.814Z,335.83
2018-04-14T02:07:45.321Z,112.00
2018-04-14T02:10:12.801Z,126.27
2018-04-14T02:12:40.327Z,232.90
2018-04-14T02:15:07.784Z,185.83
2018-04-14T02:17:35.288Z,188.67
2018-04-14T02:20:02.776Z,130.37
2018-04-14T02:22:30.313Z,121.93
2018-04-14T02:24:57.833Z,105.70
2018-04-14T02:27:26.095Z,61.23
2018-04-14T02:29:53.593Z,59.27
2018-04-14T02:32:21.082Z,76.57
2018-04-14T02:34:48.571Z,59.63
2018-04-14T02:37:16.832Z,68.10
2018-04-14T02:39:44.313Z,82.80
2018-04-14T02:42:12.565Z,74.73
2018-04-14T02:44:40.139Z,60.00
2018-04-14T02:47:08.437Z,67.17
2018-04-14T02:49:35.933Z,57.93
2018-04-14T02:52:03.443Z,53.77
2018-04-14T02:54:31.700Z,51.73
2018-04-14T02:56:59.168Z,52.93
2018-04-14T02:59:27.421Z,52.47
2018-04-14T03:01:54.889Z,53.63
2018-04-14T03:04:22.494Z,55.07
2018-04-14T03:06:49.991Z,58.43
2018-04-14T03:09:17.467Z,58.00
2018-04-14T03:11:44.944Z,59.00
2018-04-14T03:14:13.243Z,59.70
2018-04-14T03:16:40.717Z,64.70
2018-04-14T03:19:08.233Z,62.83
2018-04-14T03:21:36.467Z,68.27
2018-04-14T03:24:03.958Z,73.00
2018-04-14T03:26:32.269Z,67.47
2018-04-14T03:28:59.828Z,154.73
2018-04-14T03:31:27.307Z,94.50
2018-04-14T03:33:54.802Z,83.70
2018-04-14T03:36:22.280Z,83.37
2018-04-14T03:38:49.857Z,114.50
2018-04-14T03:41:17.329Z,110.73
2018-04-14T03:43:44.823Z,92.03
2018-04-14T03:46:12.410Z,115.63
2018-04-14T03:48:39.888Z,85.37
2018-04-14T03:51:07.386Z,85.03
2018-04-14T03:53:34.872Z,93.60
2018-04-14T03:56:03.129Z,103.40
2018-04-14T03:58:30.620Z,83.90
2018-04-14T04:00:58.080Z,94.87
2018-04-14T04:03:25.563Z,92.87
2018-04-14T04:05:53.044Z,97.03
2018-04-14T04:08:20.618Z,97.53
2018-04-14T04:10:48.122Z,87.13
2018-04-14T04:13:15.615Z,115.13
2018-04-14T04:15:43.151Z,90.60
2018-04-14T04:18:11.356Z,139.00
2018-04-14T04:20:57.561Z,88.17
2018-04-14T04:23:36.853Z,94.20
2018-04-14T04:26:04.332Z,77.33
2018-04-14T04:28:31.823Z,65.87
2018-04-14T04:30:59.291Z,73.63
2018-04-14T04:33:27.541Z,78.33
2018-04-14T04:35:55.016Z,71.87
2018-04-14T04:38:23.355Z,75.30
2018-04-14T04:40:50.856Z,69.77
2018-04-14T04:43:19.123Z,69.73
2018-04-14T04:45:46.597Z,78.93
2018-04-14T04:48:14.842Z,76.73
2018-04-14T04:50:42.317Z,71.67
2018-04-14T04:53:09.869Z,77.37
2018-04-14T04:55:37.347Z,83.10
2018-04-14T04:58:04.903Z,79.80
2018-04-14T05:00:32.398Z,79.20
2018-04-14T05:02:59.890Z,80.43
2018-04-14T05:05:27.940Z,81.53
2018-04-14T05:07:55.430Z,75.37
2018-04-14T05:10:23.751Z,68.40
2018-04-14T05:12:51.383Z,69.80
2018-04-14T05:15:19.755Z,77.43
2018-04-14T05:17:47.229Z,99.30
2018-04-14T05:20:15.516Z,102.20
2018-04-14T05:22:42.993Z,69.63
2018-04-14T05:25:10.492Z,66.70
2018-04-14T05:27:37.980Z,80.07
2018-04-14T05:30:05.461Z,64.83
2018-04-14T05:32:32.937Z,65.93
2018-04-14T05:35:00.428Z,54.63
2018-04-14T05:37:28.786Z,63.47
2018-04-14T05:39:56.276Z,54.67
2018-04-14T05:42:24.547Z,57.70
2018-04-14T05:44:52.811Z,109.80
2018-04-14T05:47:20.294Z,54.33
2018-04-14T05:49:48.542Z,62.53
2018-04-14T05:52:16.016Z,50.20
2018-04-14T05:54:44.317Z,46.03
2018-04-14T05:57:11.877Z,49.57
2018-04-14T05:59:39.359Z,44.87
2018-04-14T06:02:06.833Z,47.27
2018-04-14T06:04:34.332Z,43.47
2018-04-14T06:07:01.870Z,43.50
2018-04-14T06:09:29.349Z,41.97
2018-04-14T06:11:57.583Z,44.37
2018-04-14T06:14:25.078Z,56.73
2018-04-14T06:16:53.304Z,49.37
2018-04-14T06:19:20.830Z,48.67
2018-04-14T06:21:48.301Z,81.10
2018-04-14T06:24:15.781Z,46.93
2018-04-14T06:26:43.289Z,49.77
2018-04-14T06:29:10.821Z,62.70
2018-04-14T06:31:38.346Z,47.87
2018-04-14T06:34:05.828Z,52.47
2018-04-14T06:36:33.296Z,46.77
2018-04-14T06:39:01.571Z,47.53
2018-04-14T06:41:29.043Z,46.63
2018-04-14T06:43:58.226Z,54.77
2018-04-14T06:46:25.708Z,49.87
2018-04-14T06:48:53.198Z,47.50
2018-04-14T06:51:20.659Z,48.60
2018-04-14T06:53:48.169Z,46.47
2018-04-14T06:56:16.426Z,55.40
2018-04-14T06:58:44.012Z,52.13
2018-04-14T07:01:12.256Z,48.57
2018-04-14T07:03:39.760Z,48.90
2018-04-14T07:06:07.228Z,49.30
2018-04-14T07:08:34.779Z,45.00
2018-04-14T07:11:02.339Z,47.53
2018-04-14T07:13:29.808Z,45.47
2018-04-14T07:15:57.304Z,44.97
2018-04-14T07:18:24.800Z,45.97
2018-04-14T07:20:52.376Z,45.90
2018-04-14T07:23:19.868Z,43.03
2018-04-14T07:25:47.390Z,41.23
2018-04-14T07:28:14.868Z,41.57
2018-04-14T07:30:42.407Z,41.33
2018-04-14T07:33:09.901Z,40.27
2018-04-14T07:35:37.419Z,40.10
2018-04-14T07:38:04.992Z,44.37
2018-04-14T07:40:32.497Z,45.20
2018-04-14T07:43:00.756Z,39.77
2018-04-14T07:45:28.273Z,43.83
2018-04-14T07:47:55.753Z,39.27
2018-04-14T07:50:23.267Z,36.60
2018-04-14T07:52:50.750Z,41.22
2018-04-14T07:55:18.293Z,37.20
2018-04-14T07:57:45.798Z,37.03
2018-04-14T08:00:13.350Z,40.60
2018-04-14T08:02:40.821Z,33.90
2018-04-14T08:05:08.396Z,38.27
2018-04-14T08:07:35.909Z,32.87
2018-04-14T08:10:03.453Z,32.80
2018-04-14T08:12:30.966Z,32.87
2018-04-14T08:14:58.453Z,32.83
2018-04-14T08:17:25.931Z,28.73
2018-04-14T08:19:53.458Z,27.70
2018-04-14T08:22:21.740Z,28.00
2018-04-14T08:24:50.013Z,28.40
2018-04-14T08:27:18.262Z,26.00
2018-04-14T08:29:45.855Z,26.80
2018-04-14T08:32:13.434Z,25.37
2018-04-14T08:34:41.410Z,25.17
2018-04-14T08:37:08.882Z,35.50
2018-04-14T08:39:36.435Z,32.33
2018-04-14T08:42:03.918Z,29.67
2018-04-14T08:44:31.400Z,29.23
2018-04-14T08:46:59.643Z,31.27
2018-04-14T08:49:27.181Z,29.23
2018-04-14T08:51:54.668Z,36.10
2018-04-14T08:54:22.163Z,32.73
2018-04-14T08:56:50.410Z,32.73
2018-04-14T08:59:18.024Z,30.52
2018-04-14T09:01:45.496Z,32.53
2018-04-14T09:04:13.100Z,25.20
2018-04-14T09:06:41.335Z,26.60
2018-04-14T09:09:08.867Z,27.80
2018-04-14T09:11:36.339Z,29.73
2018-04-14T09:14:03.824Z,31.37
2018-04-14T09:16:31.339Z,24.67
2018-04-14T09:18:58.812Z,23.57
2018-04-14T09:21:26.321Z,25.03
2018-04-14T09:23:54.555Z,20.00
2018-04-14T09:26:22.077Z,21.83
2018-04-14T09:28:49.555Z,14.43
2018-04-14T09:31:17.056Z,14.03
2018-04-14T09:33:44.527Z,14.57
2018-04-14T09:36:12.083Z,13.13
2018-04-14T09:38:40.352Z,13.47
2018-04-14T09:41:07.847Z,172.47
2018-04-14T09:43:35.422Z,54.47
2018-04-14T09:46:02.925Z,60.57
2018-04-14T09:48:30.420Z,23.13
2018-04-14T09:50:57.910Z,22.23
2018-04-14T09:53:25.431Z,19.83
2018-04-14T09:55:52.942Z,21.07
2018-04-14T09:58:20.567Z,21.17
2018-04-14T10:00:53.721Z,15.90
2018-04-14T10:03:22.915Z,17.70
2018-04-14T10:05:51.187Z,17.27
2018-04-14T10:08:19.470Z,17.30
2018-04-14T10:10:47.726Z,15.60
2018-04-14T10:13:16.267Z,16.73
2018-04-14T10:15:44.438Z,17.57
2018-04-14T10:18:12.025Z,17.03
2018-04-14T10:20:39.540Z,13.17
2018-04-14T10:23:07.129Z,15.33
2018-04-14T10:25:34.657Z,14.23
2018-04-14T10:28:02.176Z,13.60
2018-04-14T10:30:29.656Z,13.83
2018-04-14T10:32:57.907Z,13.13
2018-04-14T10:35:26.921Z,12.20
2018-04-14T10:37:55.224Z,12.87
2018-04-14T10:40:23.451Z,11.03
2018-04-14T10:42:50.953Z,13.07
2018-04-14T10:45:18.491Z,10.20
2018-04-14T10:47:46.712Z,9.13
2018-04-14T10:50:14.199Z,10.20
2018-04-14T10:52:41.677Z,11.33
2018-04-14T10:55:09.936Z,13.02
2018-04-14T10:57:37.425Z,12.57
2018-04-14T11:00:05.701Z,11.03
2018-04-14T11:04:53.290Z,19.97
2018-04-14T11:07:21.033Z,16.97
2018-04-14T11:09:48.521Z,13.73
2018-04-14T11:12:15.999Z,14.33
2018-04-14T11:14:43.521Z,13.00
2018-04-14T11:17:10.994Z,13.07
2018-04-14T11:19:38.518Z,12.60
2018-04-14T11:22:06.033Z,11.37
2018-04-14T11:24:33.595Z,13.10
2018-04-14T11:27:01.086Z,14.63
2018-04-14T11:29:28.624Z,12.93
2018-04-14T11:31:56.891Z,12.73
2018-04-14T11:34:25.123Z,13.40
2018-04-14T11:36:53.133Z,13.17
2018-04-14T11:39:20.604Z,11.53
2018-04-14T11:41:48.867Z,14.63
2018-04-14T11:44:17.112Z,13.13
2018-04-14T11:46:44.799Z,14.60
2018-04-14T11:49:12.374Z,12.07
2018-04-14T11:51:40.621Z,12.97
2018-04-14T11:54:08.183Z,12.17
2018-04-14T11:56:35.664Z,12.87
2018-04-14T11:59:03.896Z,11.50
2018-04-14T12:01:31.391Z,11.63
2018-04-14T12:03:59.635Z,11.33
2018-04-14T12:06:27.128Z,10.63
2018-04-14T12:08:55.398Z,11.07
2018-04-14T12:11:22.889Z,10.73
2018-04-14T12:13:50.420Z,10.57
2018-04-14T12:16:18.681Z,9.50
2018-04-14T12:18:46.980Z,9.60
2018-04-14T12:21:15.229Z,9.00
2018-04-14T12:23:43.469Z,9.90
2018-04-14T12:26:10.952Z,17.20
2018-04-14T12:28:38.449Z,8.93
2018-04-14T12:31:06.704Z,8.10
2018-04-14T12:33:34.180Z,7.57
2018-04-14T12:36:03.263Z,8.07
2018-04-14T12:38:31.498Z,10.90
2018-04-14T12:40:58.979Z,7.20
2018-04-14T12:43:28.025Z,6.97
2018-04-14T12:45:55.510Z,7.37
2018-04-14T12:48:22.982Z,6.33
2018-04-14T12:50:50.589Z,6.70
2018-04-14T12:53:18.059Z,7.77
2018-04-14T12:55:45.544Z,6.77
2018-04-14T12:58:13.011Z,6.40
2018-04-14T13:00:40.526Z,9.23
2018-04-14T13:03:08.086Z,9.03
2018-04-14T13:05:35.613Z,5.37
2018-04-14T13:08:03.892Z,5.63
2018-04-14T13:10:32.156Z,6.57
2018-04-14T13:13:00.424Z,4.73
2018-04-14T13:15:27.909Z,7.17
2018-04-14T13:17:56.135Z,4.40
2018-04-14T13:20:23.627Z,4.30
2018-04-14T13:22:51.894Z,4.57
2018-04-14T13:25:19.465Z,7.33
2018-04-14T13:27:47.694Z,4.00
2018-04-14T13:30:15.183Z,5.80
2018-04-14T13:32:42.657Z,3.77
2018-04-14T13:35:10.965Z,6.77
2018-04-14T13:37:38.482Z,5.97
2018-04-14T13:40:05.936Z,5.97
2018-04-14T13:42:34.203Z,4.10
2018-04-14T13:45:01.669Z,3.33
2018-04-14T13:47:29.234Z,4.00
2018-04-14T13:49:56.704Z,3.23
2018-04-14T13:52:24.972Z,4.80
2018-04-14T13:54:53.236Z,3.73
2018-04-14T13:57:20.688Z,4.93
2018-04-14T13:59:49.664Z,7.87
2018-04-14T14:02:17.207Z,4.30
2018-04-14T14:04:44.667Z,6.80
2018-04-14T14:07:12.145Z,4.10
2018-04-14T14:09:39.611Z,5.57
2018-04-14T14:12:07.184Z,4.10
2018-04-14T14:14:35.421Z,3.30
2018-04-14T14:17:02.948Z,2.80
2018-04-14T14:19:30.429Z,3.07
2018-04-14T14:21:57.891Z,3.73
2018-04-14T14:24:25.373Z,3.67
2018-04-14T14:26:53.086Z,7.37
2018-04-14T14:29:20.581Z,3.03
2018-04-14T14:31:48.041Z,4.57
2018-04-14T14:34:15.506Z,5.00
2018-04-14T14:36:42.970Z,3.77
2018-04-14T14:39:10.493Z,4.63
2018-04-14T14:41:37.994Z,4.43
2018-04-14T14:44:06.369Z,3.10
2018-04-14T14:46:34.660Z,3.00
2018-04-14T14:49:02.907Z,2.77
2018-04-14T14:51:30.384Z,3.83
2018-04-14T14:53:58.632Z,4.73
2018-04-14T14:56:26.101Z,4.10
2018-04-14T14:58:53.597Z,5.17
2018-04-14T15:01:21.110Z,2.53
2018-04-14T15:03:48.596Z,5.27
2018-04-14T15:06:16.848Z,2.83
2018-04-14T15:08:44.375Z,4.13
2018-04-14T15:11:11.805Z,2.57
2018-04-14T15:13:39.287Z,2.47
2018-04-14T15:16:06.757Z,2.63
2018-04-14T15:18:34.227Z,4.47
2018-04-14T15:21:01.759Z,3.00
2018-04-14T15:23:29.237Z,4.97
2018-04-14T15:25:56.741Z,4.77
2018-04-14T15:28:24.209Z,6.50
2018-04-14T15:30:51.729Z,4.70
2018-04-14T15:33:19.225Z,4.23
2018-04-14T15:35:46.714Z,5.47
2018-04-14T15:38:14.187Z,3.23
2018-04-14T15:40:41.669Z,3.97
2018-04-14T15:43:09.911Z,4.03
2018-04-14T15:45:37.427Z,3.57
2018-04-14T15:48:04.889Z,8.67
2018-04-14T15:50:32.395Z,5.43
2018-04-14T15:52:59.858Z,3.67
2018-04-14T15:55:27.370Z,2.57
2018-04-14T15:57:54.844Z,3.37
2018-04-14T16:00:22.349Z,3.40
2018-04-14T16:02:50.600Z,2.17
2018-04-14T16:05:18.088Z,2.20
2018-04-14T16:07:46.313Z,2.97
2018-04-14T16:10:13.787Z,2.17
2018-04-14T16:12:41.261Z,2.77
2018-04-14T16:15:08.735Z,2.63
2018-04-14T16:17:37.034Z,2.90
2018-04-14T16:20:04.544Z,3.30
2018-04-14T16:22:32.140Z,3.10
2018-04-14T16:24:59.610Z,2.87
2018-04-14T16:27:27.092Z,4.17
2018-04-14T16:29:54.629Z,2.53
2018-04-14T16:32:22.131Z,2.05
2018-04-14T16:34:49.609Z,3.97
2018-04-14T16:37:17.859Z,3.40
2018-04-14T16:39:45.347Z,1.80
2018-04-14T16:42:16.034Z,3.13
2018-04-14T16:44:44.362Z,2.83
2018-04-14T16:47:12.621Z,3.83
2018-04-14T16:49:40.099Z,2.87
2018-04-14T16:52:08.347Z,2.40
2018-04-14T16:54:35.935Z,4.30
2018-04-14T16:57:04.208Z,2.73
2018-04-14T16:59:32.443Z,4.37
2018-04-14T17:02:01.436Z,3.30
2018-04-14T17:04:28.929Z,4.40
2018-04-14T17:06:57.195Z,3.00
2018-04-14T17:09:24.674Z,4.57
2018-04-14T17:11:52.216Z,3.83
2018-04-14T17:14:20.501Z,2.87
2018-04-14T17:16:48.756Z,5.57
2018-04-14T17:19:17.025Z,4.97
2018-04-14T17:21:44.550Z,3.20
2018-04-14T17:24:12.014Z,4.33
2018-04-14T17:26:39.494Z,4.57
2018-04-14T17:29:06.963Z,2.60
2018-04-14T17:31:34.463Z,4.33
2018-04-14T17:34:01.944Z,9.17
2018-04-14T17:36:29.435Z,6.47
2018-04-14T17:38:57.669Z,5.10
2018-04-14T17:41:25.167Z,5.47
2018-04-14T17:43:52.631Z,4.40
2018-04-14T17:46:20.908Z,5.23
2018-04-14T17:48:49.154Z,5.07
2018-04-14T17:51:16.665Z,6.47
2018-04-14T17:53:44.163Z,8.20
2018-04-14T17:56:11.645Z,4.17
2018-04-14T17:58:39.153Z,4.73
2018-04-14T18:01:06.627Z,3.87
2018-04-14T18:03:34.117Z,5.93
2018-04-14T18:06:01.693Z,4.17
2018-04-14T18:08:29.943Z,6.83
2018-04-14T18:10:57.430Z,6.40
2018-04-14T18:13:25.685Z,5.53
2018-04-14T18:15:53.151Z,3.50
2018-04-14T18:18:21.437Z,4.47
2018-04-14T18:20:49.664Z,4.63
2018-04-14T18:23:17.163Z,8.30
2018-04-14T18:25:45.474Z,5.17
2018-04-14T18:28:13.105Z,4.50
2018-04-14T18:30:41.365Z,5.97
2018-04-14T18:33:08.850Z,6.97
2018-04-14T18:35:36.325Z,6.93
2018-04-14T18:38:03.818Z,5.80
2018-04-14T18:40:31.311Z,6.97
2018-04-14T18:42:59.620Z,8.07
2018-04-14T18:45:27.179Z,8.40
2018-04-14T18:47:54.658Z,7.47
2018-04-14T18:50:22.163Z,6.50
2018-04-14T18:52:50.411Z,7.93
2018-04-14T18:55:17.904Z,7.40
2018-04-14T18:57:46.161Z,7.07
2018-04-14T19:00:13.715Z,9.33
2018-04-14T19:02:41.209Z,8.43
2018-04-14T19:05:08.698Z,7.23
2018-04-14T19:07:36.288Z,8.40
2018-04-14T19:10:03.774Z,8.90
2018-04-14T19:12:31.267Z,7.17
2018-04-14T19:14:58.745Z,9.60
2018-04-14T19:17:26.328Z,10.60
2018-04-14T19:19:53.806Z,11.90
2018-04-14T19:22:22.094Z,8.17
2018-04-14T19:24:49.638Z,9.93
2018-04-14T19:27:17.900Z,8.97
2018-04-14T19:29:46.135Z,8.53
2018-04-14T19:32:13.611Z,11.17
2018-04-14T19:34:41.081Z,10.17
2018-04-14T19:37:08.689Z,10.83
2018-04-14T19:39:37.853Z,11.07
2018-04-14T19:42:06.099Z,8.70
2018-04-14T19:44:33.612Z,9.20
2018-04-14T19:47:01.094Z,11.03
2018-04-14T19:49:28.593Z,13.63
2018-04-14T19:51:56.848Z,13.23
2018-04-14T19:54:24.324Z,10.40
2018-04-14T19:56:52.593Z,11.80
2018-04-14T19:59:20.844Z,9.97
2018-04-14T20:01:48.340Z,9.50
2018-04-14T20:04:16.591Z,11.03
2018-04-14T20:06:44.841Z,11.77
2018-04-14T20:09:12.347Z,12.00
2018-04-14T20:11:40.583Z,13.30
2018-04-14T20:14:08.128Z,12.10
2018-04-14T20:16:35.716Z,11.43
2018-04-14T20:19:03.217Z,14.23
2018-04-14T20:21:30.689Z,12.23
2018-04-14T20:23:58.359Z,10.73
2018-04-14T20:26:25.868Z,11.13
2018-04-14T20:28:54.144Z,12.20
2018-04-14T20:31:21.624Z,11.83
2018-04-14T20:33:49.123Z,12.47
2018-04-14T20:36:16.604Z,10.93
2018-04-14T20:38:44.183Z,12.73
2018-04-14T20:41:12.433Z,11.67
2018-04-14T20:43:39.937Z,15.53
2018-04-14T20:46:07.471Z,9.47
2018-04-14T20:48:35.735Z,10.67
2018-04-14T20:51:03.303Z,11.00
2018-04-14T20:53:30.795Z,12.77
2018-04-14T20:55:58.263Z,9.90
2018-04-14T20:58:25.741Z,9.80
2018-04-14T21:00:53.204Z,9.70
2018-04-14T21:03:20.793Z,11.40
2018-04-14T21:05:49.031Z,9.23
2018-04-14T21:08:16.526Z,11.57
2018-04-14T21:10:44.759Z,12.40
2018-04-14T21:13:12.265Z,14.37
2018-04-14T21:15:40.505Z,10.27
2018-04-14T21:18:07.991Z,9.83
2018-04-14T21:20:36.252Z,12.73
2018-04-14T21:23:03.748Z,13.83
2018-04-14T21:25:31.309Z,14.43
2018-04-14T21:27:58.801Z,13.33
2018-04-14T21:30:26.293Z,12.20
2018-04-14T21:32:53.865Z,12.57
2018-04-14T21:35:22.096Z,13.03
2018-04-14T21:37:49.608Z,12.83
2018-04-14T21:40:17.835Z,21.20
2018-04-14T21:42:45.357Z,13.50
2018-04-14T21:45:12.828Z,13.07
2018-04-14T21:47:40.325Z,14.17
2018-04-14T21:50:07.903Z,13.00
2018-04-14T21:52:36.152Z,10.90
2018-04-14T21:55:03.662Z,10.77
2018-04-14T21:57:31.172Z,13.17
2018-04-14T21:59:58.655Z,11.13
2018-04-14T22:02:26.908Z,13.47
2018-04-14T22:04:54.540Z,15.27
2018-04-14T22:07:22.787Z,13.37
2018-04-14T22:09:50.296Z,12.03
2018-04-14T22:12:17.877Z,13.97
2018-04-14T22:14:45.375Z,13.50
2018-04-14T22:17:12.874Z,12.43
2018-04-14T22:19:40.352Z,11.20
2018-04-14T22:22:07.905Z,13.63
2018-04-14T22:24:35.391Z,13.17
2018-04-14T22:27:02.908Z,14.90
2018-04-14T22:29:30.403Z,13.17
2018-04-14T22:31:58.650Z,15.93
2018-04-14T22:34:26.145Z,15.03
2018-04-14T22:36:53.729Z,11.50
2018-04-14T22:39:21.275Z,12.77
2018-04-14T22:41:48.766Z,13.63
2018-04-14T22:44:16.265Z,12.87
2018-04-14T22:46:44.507Z,13.50
2018-04-14T22:49:11.999Z,18.53
2018-04-14T22:51:40.247Z,14.87
2018-04-14T22:54:07.776Z,12.37
2018-04-14T22:56:35.256Z,16.17
2018-04-14T22:59:03.555Z,13.47
2018-04-14T23:01:31.804Z,13.43
2018-04-14T23:03:59.297Z,16.20
2018-04-14T23:06:27.548Z,17.90
2018-04-14T23:08:55.063Z,19.67
2018-04-14T23:11:22.564Z,17.30
2018-04-14T23:13:50.062Z,14.70
2018-04-14T23:16:17.623Z,14.50
2018-04-14T23:18:45.350Z,13.27
2018-04-14T23:21:12.900Z,12.80
2018-04-14T23:23:40.373Z,13.10
2018-04-14T23:26:07.893Z,14.33
2018-04-14T23:28:35.414Z,14.30
2018-04-14T23:31:02.911Z,14.50
2018-04-14T23:33:30.370Z,10.77
2018-04-14T23:35:57.891Z,12.87
2018-04-14T23:38:25.363Z,11.63
2018-04-14T23:40:52.869Z,11.87
2018-04-14T23:43:20.327Z,12.27
2018-04-14T23:45:47.813Z,12.43
2018-04-14T23:48:15.367Z,12.63
2018-04-14T23:50:43.670Z,13.87
2018-04-14T23:53:11.127Z,11.33
2018-04-14T23:55:38.629Z,15.50
2018-04-14T23:58:06.099Z,15.30
